sensor_id;sensor_type;location;lat;lon;timestamp;P1;durP1;ratioP1;P2;durP2;ratioP2
42586;SDS011;28216;53.362;-6.288;2023-05-16T00:00:53;5.72;;;1.80;;
42586;SDS011;28216;53.362;-6.288;2023-05-16T00:03:19;5.35;;;1.65;;
42586;SDS011;28216;53.362;-6.288;2023-05-16T00:05:44;6.03;;;1.70;;
42586;SDS011;28216;53.362;-6.288;2023-05-16T00:08:10;4.28;;;2.00;;
42586;SDS011;28216;53.362;-6.288;2023-05-16T00:10:36;5.70;;;1.90;;
42586;SDS011;28216;53.362;-6.288;2023-05-16T00:13:02;3.70;;;1.55;;
42586;SDS011;28216;53.362;-6.288;2023-05-16T00:15:27;5.63;;;1.60;;
42586;SDS011;28216;53.362;-6.288;2023-05-16T00:17:57;5.90;;;1.60;;
42586;SDS011;28216;53.362;-6.288;2023-05-16T00:20:24;4.05;;;2.00;;
42586;SDS011;28216;53.362;-6.288;2023-05-16T00:22:50;7.93;;;1.92;;
42586;SDS011;28216;53.362;-6.288;2023-05-16T00:25:16;3.88;;;1.75;;
42586;SDS011;28216;53.362;-6.288;2023-05-16T00:27:42;6.55;;;2.17;;
42586;SDS011;28216;53.362;-6.288;2023-05-16T00:30:07;6.35;;;2.10;;
42586;SDS011;28216;53.362;-6.288;2023-05-16T00:32:34;7.35;;;1.98;;
42586;SDS011;28216;53.362;-6.288;2023-05-16T00:35:00;7.57;;;1.75;;
42586;SDS011;28216;53.362;-6.288;2023-05-16T00:37:25;3.95;;;1.70;;
42586;SDS011;28216;53.362;-6.288;2023-05-16T00:39:51;3.45;;;1.50;;
42586;SDS011;28216;53.362;-6.288;2023-05-16T00:42:18;4.30;;;1.73;;
42586;SDS011;28216;53.362;-6.288;2023-05-16T00:44:44;6.88;;;1.98;;
42586;SDS011;28216;53.362;-6.288;2023-05-16T00:47:10;4.13;;;1.65;;
42586;SDS011;28216;53.362;-6.288;2023-05-16T00:49:36;4.78;;;1.65;;
42586;SDS011;28216;53.362;-6.288;2023-05-16T00:52:01;5.63;;;1.80;;
42586;SDS011;28216;53.362;-6.288;2023-05-16T00:54:27;6.75;;;1.90;;
42586;SDS011;28216;53.362;-6.288;2023-05-16T00:56:54;5.97;;;1.65;;
42586;SDS011;28216;53.362;-6.288;2023-05-16T00:59:20;5.20;;;1.58;;
42586;SDS011;28216;53.362;-6.288;2023-05-16T01:01:46;6.22;;;1.73;;
42586;SDS011;28216;53.362;-6.288;2023-05-16T01:04:12;6.20;;;1.73;;
42586;SDS011;28216;53.362;-6.288;2023-05-16T01:06:38;4.68;;;1.73;;
42586;SDS011;28216;53.362;-6.288;2023-05-16T01:09:04;3.83;;;1.63;;
42586;SDS011;28216;53.362;-6.288;2023-05-16T01:11:37;4.68;;;1.60;;
42586;SDS011;28216;53.362;-6.288;2023-05-16T01:28:03;7.25;;;1.70;;
42586;SDS011;28216;53.362;-6.288;2023-05-16T01:30:34;7.32;;;1.58;;
42586;SDS011;28216;53.362;-6.288;2023-05-16T01:33:01;3.30;;;1.48;;
42586;SDS011;28216;53.362;-6.288;2023-05-16T01:35:27;4.15;;;1.83;;
42586;SDS011;28216;53.362;-6.288;2023-05-16T01:40:53;5.72;;;1.70;;
42586;SDS011;28216;53.362;-6.288;2023-05-16T01:43:29;6.28;;;1.80;;
42586;SDS011;28216;53.362;-6.288;2023-05-16T01:46:03;6.18;;;1.50;;
42586;SDS011;28216;53.362;-6.288;2023-05-16T01:48:37;3.35;;;1.85;;
42586;SDS011;28216;53.362;-6.288;2023-05-16T01:51:23;6.20;;;1.90;;
42586;SDS011;28216;53.362;-6.288;2023-05-16T01:53:54;4.97;;;1.70;;
42586;SDS011;28216;53.362;-6.288;2023-05-16T01:56:25;4.38;;;1.70;;
42586;SDS011;28216;53.362;-6.288;2023-05-16T01:58:53;5.55;;;1.80;;
42586;SDS011;28216;53.362;-6.288;2023-05-16T02:01:20;4.32;;;1.60;;
42586;SDS011;28216;53.362;-6.288;2023-05-16T02:03:47;4.38;;;1.67;;
42586;SDS011;28216;53.362;-6.288;2023-05-16T02:06:12;2.92;;;1.52;;
42586;SDS011;28216;53.362;-6.288;2023-05-16T02:08:37;3.60;;;1.60;;
42586;SDS011;28216;53.362;-6.288;2023-05-16T02:11:03;5.38;;;1.80;;
42586;SDS011;28216;53.362;-6.288;2023-05-16T02:13:28;3.63;;;1.45;;
42586;SDS011;28216;53.362;-6.288;2023-05-16T02:15:54;5.15;;;1.98;;
42586;SDS011;28216;53.362;-6.288;2023-05-16T02:18:19;5.80;;;1.80;;
42586;SDS011;28216;53.362;-6.288;2023-05-16T02:20:47;4.30;;;1.48;;
42586;SDS011;28216;53.362;-6.288;2023-05-16T02:23:13;4.28;;;1.70;;
42586;SDS011;28216;53.362;-6.288;2023-05-16T02:25:38;5.88;;;2.03;;
42586;SDS011;28216;53.362;-6.288;2023-05-16T02:28:04;4.07;;;2.05;;
42586;SDS011;28216;53.362;-6.288;2023-05-16T02:30:30;4.97;;;2.08;;
42586;SDS011;28216;53.362;-6.288;2023-05-16T02:32:56;5.65;;;1.80;;
42586;SDS011;28216;53.362;-6.288;2023-05-16T02:35:21;4.30;;;1.73;;
42586;SDS011;28216;53.362;-6.288;2023-05-16T02:37:47;4.85;;;1.60;;
42586;SDS011;28216;53.362;-6.288;2023-05-16T02:40:12;5.85;;;1.88;;
42586;SDS011;28216;53.362;-6.288;2023-05-16T02:42:39;4.35;;;2.08;;
42586;SDS011;28216;53.362;-6.288;2023-05-16T02:45:04;4.50;;;2.03;;
42586;SDS011;28216;53.362;-6.288;2023-05-16T02:47:30;4.75;;;1.95;;
42586;SDS011;28216;53.362;-6.288;2023-05-16T02:49:56;5.72;;;2.00;;
42586;SDS011;28216;53.362;-6.288;2023-05-16T02:52:21;4.65;;;2.45;;
42586;SDS011;28216;53.362;-6.288;2023-05-16T02:54:46;3.55;;;1.60;;
42586;SDS011;28216;53.362;-6.288;2023-05-16T02:57:12;6.95;;;1.98;;
42586;SDS011;28216;53.362;-6.288;2023-05-16T02:59:37;3.78;;;1.70;;
42586;SDS011;28216;53.362;-6.288;2023-05-16T03:02:03;8.73;;;2.20;;
42586;SDS011;28216;53.362;-6.288;2023-05-16T03:04:28;5.10;;;1.88;;
42586;SDS011;28216;53.362;-6.288;2023-05-16T03:06:54;7.05;;;1.90;;
42586;SDS011;28216;53.362;-6.288;2023-05-16T03:09:20;4.35;;;1.75;;
42586;SDS011;28216;53.362;-6.288;2023-05-16T03:11:46;5.75;;;1.95;;
42586;SDS011;28216;53.362;-6.288;2023-05-16T03:14:11;7.70;;;2.08;;
42586;SDS011;28216;53.362;-6.288;2023-05-16T03:16:37;8.45;;;2.13;;
42586;SDS011;28216;53.362;-6.288;2023-05-16T03:19:04;4.03;;;1.67;;
42586;SDS011;28216;53.362;-6.288;2023-05-16T03:21:29;6.05;;;2.20;;
42586;SDS011;28216;53.362;-6.288;2023-05-16T03:23:55;4.28;;;1.85;;
42586;SDS011;28216;53.362;-6.288;2023-05-16T03:26:22;4.90;;;1.75;;
42586;SDS011;28216;53.362;-6.288;2023-05-16T03:28:48;5.32;;;2.00;;
42586;SDS011;28216;53.362;-6.288;2023-05-16T03:31:15;3.83;;;1.83;;
42586;SDS011;28216;53.362;-6.288;2023-05-16T03:33:40;5.72;;;2.10;;
42586;SDS011;28216;53.362;-6.288;2023-05-16T03:36:06;5.18;;;2.15;;
42586;SDS011;28216;53.362;-6.288;2023-05-16T03:38:32;5.50;;;2.10;;
42586;SDS011;28216;53.362;-6.288;2023-05-16T03:40:58;6.00;;;2.03;;
42586;SDS011;28216;53.362;-6.288;2023-05-16T03:43:23;4.60;;;1.90;;
42586;SDS011;28216;53.362;-6.288;2023-05-16T03:45:49;4.47;;;1.90;;
42586;SDS011;28216;53.362;-6.288;2023-05-16T03:48:14;5.80;;;1.83;;
42586;SDS011;28216;53.362;-6.288;2023-05-16T03:50:39;3.80;;;1.80;;
42586;SDS011;28216;53.362;-6.288;2023-05-16T03:53:06;4.93;;;1.90;;
42586;SDS011;28216;53.362;-6.288;2023-05-16T03:55:31;6.03;;;2.08;;
42586;SDS011;28216;53.362;-6.288;2023-05-16T03:57:57;7.32;;;2.30;;
42586;SDS011;28216;53.362;-6.288;2023-05-16T04:00:22;2.95;;;1.83;;
42586;SDS011;28216;53.362;-6.288;2023-05-16T04:02:47;2.70;;;1.80;;
42586;SDS011;28216;53.362;-6.288;2023-05-16T04:05:13;4.03;;;1.95;;
42586;SDS011;28216;53.362;-6.288;2023-05-16T04:07:39;4.18;;;1.70;;
42586;SDS011;28216;53.362;-6.288;2023-05-16T04:10:05;9.20;;;1.80;;
42586;SDS011;28216;53.362;-6.288;2023-05-16T04:12:31;4.05;;;1.90;;
42586;SDS011;28216;53.362;-6.288;2023-05-16T04:14:57;6.43;;;1.83;;
42586;SDS011;28216;53.362;-6.288;2023-05-16T04:17:22;5.95;;;2.10;;
42586;SDS011;28216;53.362;-6.288;2023-05-16T04:19:48;3.60;;;1.95;;
42586;SDS011;28216;53.362;-6.288;2023-05-16T04:22:13;4.70;;;1.80;;
42586;SDS011;28216;53.362;-6.288;2023-05-16T04:24:39;6.38;;;2.20;;
42586;SDS011;28216;53.362;-6.288;2023-05-16T04:27:05;4.47;;;2.00;;
42586;SDS011;28216;53.362;-6.288;2023-05-16T04:29:33;4.78;;;2.33;;
42586;SDS011;28216;53.362;-6.288;2023-05-16T04:31:59;4.85;;;1.98;;
42586;SDS011;28216;53.362;-6.288;2023-05-16T04:34:24;5.18;;;1.60;;
42586;SDS011;28216;53.362;-6.288;2023-05-16T04:36:52;7.15;;;2.22;;
42586;SDS011;28216;53.362;-6.288;2023-05-16T04:39:20;5.82;;;2.03;;
42586;SDS011;28216;53.362;-6.288;2023-05-16T04:41:45;10.63;;;2.30;;
42586;SDS011;28216;53.362;-6.288;2023-05-16T04:44:11;6.60;;;1.92;;
42586;SDS011;28216;53.362;-6.288;2023-05-16T04:46:37;5.35;;;2.08;;
42586;SDS011;28216;53.362;-6.288;2023-05-16T04:49:02;7.32;;;1.90;;
42586;SDS011;28216;53.362;-6.288;2023-05-16T04:51:28;5.90;;;2.05;;
42586;SDS011;28216;53.362;-6.288;2023-05-16T04:53:53;6.25;;;1.90;;
42586;SDS011;28216;53.362;-6.288;2023-05-16T04:56:19;5.38;;;1.95;;
42586;SDS011;28216;53.362;-6.288;2023-05-16T04:58:45;4.07;;;1.90;;
42586;SDS011;28216;53.362;-6.288;2023-05-16T05:01:11;4.22;;;1.85;;
42586;SDS011;28216;53.362;-6.288;2023-05-16T05:03:36;9.15;;;2.30;;
42586;SDS011;28216;53.362;-6.288;2023-05-16T05:06:02;8.02;;;2.03;;
42586;SDS011;28216;53.362;-6.288;2023-05-16T05:08:28;4.10;;;1.90;;
42586;SDS011;28216;53.362;-6.288;2023-05-16T05:10:56;5.53;;;1.75;;
42586;SDS011;28216;53.362;-6.288;2023-05-16T05:13:22;8.10;;;2.25;;
42586;SDS011;28216;53.362;-6.288;2023-05-16T05:15:48;7.07;;;2.40;;
42586;SDS011;28216;53.362;-6.288;2023-05-16T05:18:14;6.22;;;2.30;;
42586;SDS011;28216;53.362;-6.288;2023-05-16T05:20:40;9.45;;;2.17;;
42586;SDS011;28216;53.362;-6.288;2023-05-16T05:23:05;5.32;;;2.30;;
42586;SDS011;28216;53.362;-6.288;2023-05-16T05:25:31;9.60;;;2.05;;
42586;SDS011;28216;53.362;-6.288;2023-05-16T05:27:57;5.40;;;2.08;;
42586;SDS011;28216;53.362;-6.288;2023-05-16T05:30:23;10.55;;;2.15;;
42586;SDS011;28216;53.362;-6.288;2023-05-16T05:32:48;6.25;;;1.98;;
42586;SDS011;28216;53.362;-6.288;2023-05-16T05:35:14;8.00;;;2.20;;
42586;SDS011;28216;53.362;-6.288;2023-05-16T05:37:39;4.90;;;1.92;;
42586;SDS011;28216;53.362;-6.288;2023-05-16T05:40:05;6.22;;;2.03;;
42586;SDS011;28216;53.362;-6.288;2023-05-16T05:42:31;6.10;;;2.13;;
42586;SDS011;28216;53.362;-6.288;2023-05-16T05:44:57;6.05;;;2.10;;
42586;SDS011;28216;53.362;-6.288;2023-05-16T05:47:23;7.47;;;2.15;;
42586;SDS011;28216;53.362;-6.288;2023-05-16T05:49:49;8.02;;;2.20;;
42586;SDS011;28216;53.362;-6.288;2023-05-16T05:52:14;7.93;;;2.55;;
42586;SDS011;28216;53.362;-6.288;2023-05-16T05:54:40;7.35;;;2.10;;
42586;SDS011;28216;53.362;-6.288;2023-05-16T05:57:05;8.23;;;2.30;;
42586;SDS011;28216;53.362;-6.288;2023-05-16T05:59:31;6.70;;;2.10;;
42586;SDS011;28216;53.362;-6.288;2023-05-16T06:01:56;8.63;;;2.30;;
42586;SDS011;28216;53.362;-6.288;2023-05-16T06:04:22;7.50;;;2.78;;
42586;SDS011;28216;53.362;-6.288;2023-05-16T06:06:48;6.53;;;2.15;;
42586;SDS011;28216;53.362;-6.288;2023-05-16T06:09:13;7.22;;;2.60;;
42586;SDS011;28216;53.362;-6.288;2023-05-16T06:11:39;11.35;;;2.20;;
42586;SDS011;28216;53.362;-6.288;2023-05-16T06:14:05;8.77;;;2.30;;
42586;SDS011;28216;53.362;-6.288;2023-05-16T06:16:31;5.90;;;2.15;;
42586;SDS011;28216;53.362;-6.288;2023-05-16T06:18:57;5.55;;;2.20;;
42586;SDS011;28216;53.362;-6.288;2023-05-16T06:21:22;6.28;;;2.40;;
42586;SDS011;28216;53.362;-6.288;2023-05-16T06:23:48;6.03;;;2.35;;
42586;SDS011;28216;53.362;-6.288;2023-05-16T06:26:13;7.93;;;2.72;;
42586;SDS011;28216;53.362;-6.288;2023-05-16T06:28:42;6.00;;;1.95;;
42586;SDS011;28216;53.362;-6.288;2023-05-16T06:31:07;7.15;;;2.58;;
42586;SDS011;28216;53.362;-6.288;2023-05-16T06:33:36;7.55;;;2.55;;
42586;SDS011;28216;53.362;-6.288;2023-05-16T06:36:01;6.28;;;2.65;;
42586;SDS011;28216;53.362;-6.288;2023-05-16T06:38:27;7.15;;;2.40;;
42586;SDS011;28216;53.362;-6.288;2023-05-16T06:40:53;7.55;;;2.28;;
42586;SDS011;28216;53.362;-6.288;2023-05-16T06:43:18;10.52;;;2.40;;
42586;SDS011;28216;53.362;-6.288;2023-05-16T06:45:44;8.18;;;2.38;;
42586;SDS011;28216;53.362;-6.288;2023-05-16T06:48:10;7.13;;;2.38;;
42586;SDS011;28216;53.362;-6.288;2023-05-16T06:50:38;9.25;;;2.67;;
42586;SDS011;28216;53.362;-6.288;2023-05-16T06:53:04;4.95;;;2.50;;
42586;SDS011;28216;53.362;-6.288;2023-05-16T06:55:31;7.55;;;2.78;;
42586;SDS011;28216;53.362;-6.288;2023-05-16T06:57:57;5.25;;;2.67;;
42586;SDS011;28216;53.362;-6.288;2023-05-16T07:16:47;11.98;;;3.20;;
42586;SDS011;28216;53.362;-6.288;2023-05-16T07:19:12;8.60;;;2.95;;
42586;SDS011;28216;53.362;-6.288;2023-05-16T07:25:09;6.93;;;2.97;;
42586;SDS011;28216;53.362;-6.288;2023-05-16T07:34:31;8.07;;;2.95;;
42586;SDS011;28216;53.362;-6.288;2023-05-16T07:40:00;11.63;;;3.47;;
42586;SDS011;28216;53.362;-6.288;2023-05-16T07:42:27;11.85;;;4.03;;
42586;SDS011;28216;53.362;-6.288;2023-05-16T07:44:53;11.32;;;3.65;;
42586;SDS011;28216;53.362;-6.288;2023-05-16T07:47:18;8.50;;;3.85;;
42586;SDS011;28216;53.362;-6.288;2023-05-16T07:49:45;11.30;;;3.90;;
42586;SDS011;28216;53.362;-6.288;2023-05-16T07:52:10;10.60;;;3.80;;
42586;SDS011;28216;53.362;-6.288;2023-05-16T07:54:36;8.93;;;3.53;;
42586;SDS011;28216;53.362;-6.288;2023-05-16T07:57:02;9.40;;;3.72;;
42586;SDS011;28216;53.362;-6.288;2023-05-16T07:59:28;10.88;;;4.25;;
42586;SDS011;28216;53.362;-6.288;2023-05-16T08:01:53;12.20;;;3.65;;
42586;SDS011;28216;53.362;-6.288;2023-05-16T08:07:04;12.05;;;3.83;;
42586;SDS011;28216;53.362;-6.288;2023-05-16T08:09:30;10.13;;;3.95;;
42586;SDS011;28216;53.362;-6.288;2023-05-16T08:11:55;10.90;;;4.00;;
42586;SDS011;28216;53.362;-6.288;2023-05-16T08:14:21;9.68;;;3.60;;
42586;SDS011;28216;53.362;-6.288;2023-05-16T08:16:46;10.98;;;3.78;;
42586;SDS011;28216;53.362;-6.288;2023-05-16T08:22:38;11.48;;;3.65;;
42586;SDS011;28216;53.362;-6.288;2023-05-16T08:32:01;12.82;;;4.00;;
42586;SDS011;28216;53.362;-6.288;2023-05-16T08:34:31;11.30;;;4.45;;
42586;SDS011;28216;53.362;-6.288;2023-05-16T08:36:57;11.90;;;4.45;;
42586;SDS011;28216;53.362;-6.288;2023-05-16T08:39:24;11.88;;;4.97;;
42586;SDS011;28216;53.362;-6.288;2023-05-16T08:41:50;13.38;;;4.88;;
42586;SDS011;28216;53.362;-6.288;2023-05-16T08:44:15;12.60;;;4.80;;
42586;SDS011;28216;53.362;-6.288;2023-05-16T08:46:51;13.63;;;5.00;;
42586;SDS011;28216;53.362;-6.288;2023-05-16T08:49:19;13.20;;;4.68;;
42586;SDS011;28216;53.362;-6.288;2023-05-16T08:51:46;12.88;;;4.57;;
42586;SDS011;28216;53.362;-6.288;2023-05-16T08:56:58;12.07;;;5.07;;
42586;SDS011;28216;53.362;-6.288;2023-05-16T08:59:25;13.82;;;4.40;;
42586;SDS011;28216;53.362;-6.288;2023-05-16T09:01:56;11.60;;;4.07;;
42586;SDS011;28216;53.362;-6.288;2023-05-16T09:04:22;11.10;;;4.45;;
42586;SDS011;28216;53.362;-6.288;2023-05-16T09:06:50;10.65;;;4.68;;
42586;SDS011;28216;53.362;-6.288;2023-05-16T09:16:13;12.10;;;4.63;;
42586;SDS011;28216;53.362;-6.288;2023-05-16T09:18:41;10.48;;;4.30;;
42586;SDS011;28216;53.362;-6.288;2023-05-16T09:21:08;13.48;;;4.25;;
42586;SDS011;28216;53.362;-6.288;2023-05-16T09:23:35;9.57;;;4.07;;
42586;SDS011;28216;53.362;-6.288;2023-05-16T09:26:02;9.35;;;4.10;;
42586;SDS011;28216;53.362;-6.288;2023-05-16T09:28:31;10.05;;;3.67;;
42586;SDS011;28216;53.362;-6.288;2023-05-16T09:37:44;8.30;;;3.90;;
42586;SDS011;28216;53.362;-6.288;2023-05-16T09:40:10;10.43;;;4.00;;
42586;SDS011;28216;53.362;-6.288;2023-05-16T09:42:36;9.40;;;4.20;;
42586;SDS011;28216;53.362;-6.288;2023-05-16T09:45:02;15.30;;;4.68;;
42586;SDS011;28216;53.362;-6.288;2023-05-16T09:47:28;13.70;;;4.13;;
42586;SDS011;28216;53.362;-6.288;2023-05-16T09:56:20;10.95;;;3.95;;
42586;SDS011;28216;53.362;-6.288;2023-05-16T09:58:46;11.55;;;4.30;;
42586;SDS011;28216;53.362;-6.288;2023-05-16T10:01:12;10.55;;;3.95;;
42586;SDS011;28216;53.362;-6.288;2023-05-16T10:10:06;14.45;;;4.57;;
42586;SDS011;28216;53.362;-6.288;2023-05-16T10:12:33;9.75;;;4.30;;
42586;SDS011;28216;53.362;-6.288;2023-05-16T10:15:03;13.65;;;4.30;;
42586;SDS011;28216;53.362;-6.288;2023-05-16T10:17:30;9.07;;;4.30;;
42586;SDS011;28216;53.362;-6.288;2023-05-16T10:20:00;10.23;;;4.00;;
42586;SDS011;28216;53.362;-6.288;2023-05-16T10:25:51;11.80;;;4.07;;
42586;SDS011;28216;53.362;-6.288;2023-05-16T10:28:17;9.35;;;3.60;;
42586;SDS011;28216;53.362;-6.288;2023-05-16T10:49:48;11.68;;;4.40;;
42586;SDS011;28216;53.362;-6.288;2023-05-16T10:55:16;11.18;;;4.35;;
42586;SDS011;28216;53.362;-6.288;2023-05-16T11:01:23;8.10;;;4.20;;
42586;SDS011;28216;53.362;-6.288;2023-05-16T11:06:27;10.38;;;4.38;;
42586;SDS011;28216;53.362;-6.288;2023-05-16T11:14:07;10.15;;;4.47;;
42586;SDS011;28216;53.362;-6.288;2023-05-16T11:16:44;14.15;;;4.65;;
42586;SDS011;28216;53.362;-6.288;2023-05-16T11:19:13;11.98;;;4.30;;
42586;SDS011;28216;53.362;-6.288;2023-05-16T11:27:18;10.10;;;4.50;;
42586;SDS011;28216;53.362;-6.288;2023-05-16T11:32:39;9.70;;;4.80;;
42586;SDS011;28216;53.362;-6.288;2023-05-16T11:35:06;11.63;;;4.40;;
42586;SDS011;28216;53.362;-6.288;2023-05-16T11:37:33;7.80;;;4.35;;
42586;SDS011;28216;53.362;-6.288;2023-05-16T11:40:03;9.43;;;4.28;;
42586;SDS011;28216;53.362;-6.288;2023-05-16T11:42:45;7.22;;;4.00;;
42586;SDS011;28216;53.362;-6.288;2023-05-16T11:45:15;11.85;;;4.97;;
42586;SDS011;28216;53.362;-6.288;2023-05-16T11:47:51;12.30;;;4.90;;
42586;SDS011;28216;53.362;-6.288;2023-05-16T11:50:17;9.05;;;4.45;;
42586;SDS011;28216;53.362;-6.288;2023-05-16T11:52:48;9.68;;;4.43;;
42586;SDS011;28216;53.362;-6.288;2023-05-16T11:55:25;10.45;;;4.93;;
42586;SDS011;28216;53.362;-6.288;2023-05-16T11:57:52;10.95;;;4.70;;
42586;SDS011;28216;53.362;-6.288;2023-05-16T12:00:19;9.25;;;4.40;;
42586;SDS011;28216;53.362;-6.288;2023-05-16T12:02:46;11.15;;;5.13;;
42586;SDS011;28216;53.362;-6.288;2023-05-16T12:05:13;11.25;;;5.10;;
42586;SDS011;28216;53.362;-6.288;2023-05-16T12:07:43;12.50;;;4.50;;
42586;SDS011;28216;53.362;-6.288;2023-05-16T12:10:10;8.43;;;4.25;;
42586;SDS011;28216;53.362;-6.288;2023-05-16T12:12:37;11.88;;;4.63;;
42586;SDS011;28216;53.362;-6.288;2023-05-16T12:15:06;10.20;;;4.40;;
42586;SDS011;28216;53.362;-6.288;2023-05-16T12:17:33;13.60;;;4.80;;
42586;SDS011;28216;53.362;-6.288;2023-05-16T12:19:59;10.98;;;4.57;;
42586;SDS011;28216;53.362;-6.288;2023-05-16T12:22:25;10.10;;;4.63;;
42586;SDS011;28216;53.362;-6.288;2023-05-16T12:24:51;8.10;;;4.20;;
42586;SDS011;28216;53.362;-6.288;2023-05-16T12:27:26;11.75;;;4.65;;
42586;SDS011;28216;53.362;-6.288;2023-05-16T12:29:52;10.38;;;4.32;;
42586;SDS011;28216;53.362;-6.288;2023-05-16T12:32:18;10.02;;;4.30;;
42586;SDS011;28216;53.362;-6.288;2023-05-16T12:34:50;11.10;;;4.20;;
42586;SDS011;28216;53.362;-6.288;2023-05-16T12:37:17;11.90;;;4.20;;
42586;SDS011;28216;53.362;-6.288;2023-05-16T12:39:43;8.23;;;4.40;;
42586;SDS011;28216;53.362;-6.288;2023-05-16T12:42:12;9.65;;;4.22;;
42586;SDS011;28216;53.362;-6.288;2023-05-16T12:44:38;8.63;;;4.43;;
42586;SDS011;28216;53.362;-6.288;2023-05-16T12:47:14;10.55;;;4.07;;
42586;SDS011;28216;53.362;-6.288;2023-05-16T12:49:43;8.95;;;3.95;;
42586;SDS011;28216;53.362;-6.288;2023-05-16T12:52:18;10.00;;;4.00;;
42586;SDS011;28216;53.362;-6.288;2023-05-16T12:54:45;11.75;;;4.47;;
42586;SDS011;28216;53.362;-6.288;2023-05-16T12:57:12;8.98;;;3.70;;
42586;SDS011;28216;53.362;-6.288;2023-05-16T12:59:38;7.53;;;4.20;;
42586;SDS011;28216;53.362;-6.288;2023-05-16T13:02:03;8.38;;;4.20;;
42586;SDS011;28216;53.362;-6.288;2023-05-16T13:04:29;8.93;;;4.43;;
42586;SDS011;28216;53.362;-6.288;2023-05-16T13:06:55;9.02;;;4.38;;
42586;SDS011;28216;53.362;-6.288;2023-05-16T13:09:21;11.45;;;4.22;;
42586;SDS011;28216;53.362;-6.288;2023-05-16T13:11:47;9.32;;;4.45;;
42586;SDS011;28216;53.362;-6.288;2023-05-16T13:14:14;13.10;;;4.68;;
42586;SDS011;28216;53.362;-6.288;2023-05-16T13:16:41;10.38;;;4.30;;
42586;SDS011;28216;53.362;-6.288;2023-05-16T13:19:06;10.82;;;4.57;;
42586;SDS011;28216;53.362;-6.288;2023-05-16T13:21:32;11.77;;;4.43;;
42586;SDS011;28216;53.362;-6.288;2023-05-16T13:23:57;10.50;;;4.38;;
42586;SDS011;28216;53.362;-6.288;2023-05-16T13:26:23;7.35;;;4.00;;
42586;SDS011;28216;53.362;-6.288;2023-05-16T13:28:48;10.52;;;4.00;;
42586;SDS011;28216;53.362;-6.288;2023-05-16T13:31:17;9.20;;;4.10;;
42586;SDS011;28216;53.362;-6.288;2023-05-16T13:33:43;8.68;;;4.15;;
42586;SDS011;28216;53.362;-6.288;2023-05-16T13:36:08;10.60;;;4.28;;
42586;SDS011;28216;53.362;-6.288;2023-05-16T13:38:34;13.25;;;5.05;;
42586;SDS011;28216;53.362;-6.288;2023-05-16T13:41:00;12.45;;;4.22;;
42586;SDS011;28216;53.362;-6.288;2023-05-16T13:43:25;9.65;;;4.05;;
42586;SDS011;28216;53.362;-6.288;2023-05-16T13:45:51;12.40;;;4.63;;
42586;SDS011;28216;53.362;-6.288;2023-05-16T13:48:16;9.10;;;4.25;;
42586;SDS011;28216;53.362;-6.288;2023-05-16T13:50:42;8.25;;;4.28;;
42586;SDS011;28216;53.362;-6.288;2023-05-16T13:53:07;9.05;;;3.83;;
42586;SDS011;28216;53.362;-6.288;2023-05-16T13:55:33;8.02;;;4.00;;
42586;SDS011;28216;53.362;-6.288;2023-05-16T13:57:58;7.20;;;3.53;;
42586;SDS011;28216;53.362;-6.288;2023-05-16T14:00:24;7.60;;;3.88;;
42586;SDS011;28216;53.362;-6.288;2023-05-16T14:02:50;12.38;;;4.07;;
42586;SDS011;28216;53.362;-6.288;2023-05-16T14:05:16;10.85;;;4.32;;
42586;SDS011;28216;53.362;-6.288;2023-05-16T14:07:42;9.23;;;4.00;;
42586;SDS011;28216;53.362;-6.288;2023-05-16T14:10:08;10.63;;;4.40;;
42586;SDS011;28216;53.362;-6.288;2023-05-16T14:12:33;11.93;;;4.25;;
42586;SDS011;28216;53.362;-6.288;2023-05-16T14:18:02;10.38;;;4.15;;
42586;SDS011;28216;53.362;-6.288;2023-05-16T14:20:28;8.43;;;3.90;;
42586;SDS011;28216;53.362;-6.288;2023-05-16T14:22:55;7.90;;;3.92;;
42586;SDS011;28216;53.362;-6.288;2023-05-16T14:25:21;11.48;;;4.43;;
42586;SDS011;28216;53.362;-6.288;2023-05-16T14:27:46;9.05;;;4.00;;
42586;SDS011;28216;53.362;-6.288;2023-05-16T14:32:59;8.05;;;4.20;;
42586;SDS011;28216;53.362;-6.288;2023-05-16T14:35:25;8.85;;;3.70;;
42586;SDS011;28216;53.362;-6.288;2023-05-16T14:37:50;7.82;;;3.80;;
42586;SDS011;28216;53.362;-6.288;2023-05-16T14:40:16;9.05;;;4.00;;
42586;SDS011;28216;53.362;-6.288;2023-05-16T14:42:41;9.48;;;4.65;;
42586;SDS011;28216;53.362;-6.288;2023-05-16T14:45:07;8.40;;;4.15;;
42586;SDS011;28216;53.362;-6.288;2023-05-16T14:47:32;10.70;;;3.83;;
42586;SDS011;28216;53.362;-6.288;2023-05-16T14:49:58;18.17;;;3.85;;
42586;SDS011;28216;53.362;-6.288;2023-05-16T14:52:25;7.47;;;3.50;;
42586;SDS011;28216;53.362;-6.288;2023-05-16T14:54:50;9.02;;;3.55;;
42586;SDS011;28216;53.362;-6.288;2023-05-16T14:57:16;9.18;;;3.65;;
42586;SDS011;28216;53.362;-6.288;2023-05-16T14:59:41;7.65;;;3.80;;
42586;SDS011;28216;53.362;-6.288;2023-05-16T15:02:06;10.38;;;3.72;;
42586;SDS011;28216;53.362;-6.288;2023-05-16T15:04:32;9.18;;;3.60;;
42586;SDS011;28216;53.362;-6.288;2023-05-16T15:06:57;8.13;;;3.63;;
42586;SDS011;28216;53.362;-6.288;2023-05-16T15:09:23;11.90;;;4.10;;
42586;SDS011;28216;53.362;-6.288;2023-05-16T15:11:48;10.75;;;3.88;;
42586;SDS011;28216;53.362;-6.288;2023-05-16T15:14:14;6.90;;;3.63;;
42586;SDS011;28216;53.362;-6.288;2023-05-16T15:16:39;6.75;;;3.40;;
42586;SDS011;28216;53.362;-6.288;2023-05-16T15:19:06;9.00;;;3.47;;
42586;SDS011;28216;53.362;-6.288;2023-05-16T15:21:31;6.88;;;3.25;;
42586;SDS011;28216;53.362;-6.288;2023-05-16T15:23:57;8.75;;;3.78;;
42586;SDS011;28216;53.362;-6.288;2023-05-16T15:26:23;7.82;;;3.20;;
42586;SDS011;28216;53.362;-6.288;2023-05-16T15:28:48;7.15;;;3.17;;
42586;SDS011;28216;53.362;-6.288;2023-05-16T15:31:14;6.30;;;3.50;;
42586;SDS011;28216;53.362;-6.288;2023-05-16T15:33:40;10.50;;;3.78;;
42586;SDS011;28216;53.362;-6.288;2023-05-16T15:36:06;8.88;;;3.30;;
42586;SDS011;28216;53.362;-6.288;2023-05-16T15:38:31;8.15;;;3.35;;
42586;SDS011;28216;53.362;-6.288;2023-05-16T15:40:57;6.65;;;3.20;;
42586;SDS011;28216;53.362;-6.288;2023-05-16T15:43:23;8.35;;;3.30;;
42586;SDS011;28216;53.362;-6.288;2023-05-16T15:45:48;7.40;;;2.95;;
42586;SDS011;28216;53.362;-6.288;2023-05-16T15:48:14;7.63;;;2.90;;
42586;SDS011;28216;53.362;-6.288;2023-05-16T15:50:39;8.45;;;3.38;;
42586;SDS011;28216;53.362;-6.288;2023-05-16T15:53:07;5.70;;;2.78;;
42586;SDS011;28216;53.362;-6.288;2023-05-16T15:55:32;8.77;;;3.40;;
42586;SDS011;28216;53.362;-6.288;2023-05-16T15:57:58;10.93;;;3.97;;
42586;SDS011;28216;53.362;-6.288;2023-05-16T16:00:24;8.80;;;3.75;;
42586;SDS011;28216;53.362;-6.288;2023-05-16T16:02:50;8.57;;;3.38;;
42586;SDS011;28216;53.362;-6.288;2023-05-16T16:05:16;9.38;;;4.70;;
42586;SDS011;28216;53.362;-6.288;2023-05-16T16:07:41;11.55;;;3.65;;
42586;SDS011;28216;53.362;-6.288;2023-05-16T16:10:07;11.05;;;3.58;;
42586;SDS011;28216;53.362;-6.288;2023-05-16T16:12:33;7.25;;;3.65;;
42586;SDS011;28216;53.362;-6.288;2023-05-16T16:14:59;10.68;;;3.55;;
42586;SDS011;28216;53.362;-6.288;2023-05-16T16:17:26;10.43;;;3.83;;
42586;SDS011;28216;53.362;-6.288;2023-05-16T16:19:51;7.63;;;3.47;;
42586;SDS011;28216;53.362;-6.288;2023-05-16T16:22:19;8.55;;;3.70;;
42586;SDS011;28216;53.362;-6.288;2023-05-16T16:24:44;9.77;;;3.50;;
42586;SDS011;28216;53.362;-6.288;2023-05-16T16:27:10;9.30;;;3.25;;
42586;SDS011;28216;53.362;-6.288;2023-05-16T16:29:35;12.32;;;3.50;;
42586;SDS011;28216;53.362;-6.288;2023-05-16T16:32:01;7.32;;;3.42;;
42586;SDS011;28216;53.362;-6.288;2023-05-16T16:34:26;6.55;;;3.10;;
42586;SDS011;28216;53.362;-6.288;2023-05-16T16:36:52;7.72;;;3.17;;
42586;SDS011;28216;53.362;-6.288;2023-05-16T16:39:17;6.70;;;3.30;;
42586;SDS011;28216;53.362;-6.288;2023-05-16T16:41:43;8.55;;;3.42;;
42586;SDS011;28216;53.362;-6.288;2023-05-16T16:44:08;6.00;;;3.30;;
42586;SDS011;28216;53.362;-6.288;2023-05-16T16:46:34;7.07;;;3.10;;